Time;durP1;ratioP1;P1;durP2;ratioP2;P2;SDS_P1;SDS_P2;PMS_P1;PMS_P2;Temp;Humidity;BMP_temperature;BMP_pressure;BME280_temperature;BME280_humidity;BME280_pressure;Samples;Min_cycle;Max_cycle;Signal;HPM_P1;HPM_P2
2021/05/10 00:01:19;;;;;;;5.53;3.93;;;;;;;18.27;78.34;99092.25;634483;225;23842;-72
2021/05/10 00:03:48;;;;;;;4.70;3.93;;;;;;;18.04;78.56;99108.23;629078;225;26365;-73
2021/05/10 00:06:15;;;;;;;6.20;2.63;;;;;;;17.65;80.86;99103.38;650396;220;23851;-73
2021/05/10 00:08:43;;;;;;;4.60;3.40;;;;;;;17.91;79.29;99099.17;631691;225;24858;-73
2021/05/10 00:11:11;;;;;;;4.07;3.03;;;;;;;18.03;79.26;99102.68;626780;226;23925;-73
2021/05/10 00:13:43;;;;;;;4.90;3.50;;;;;;;18.13;78.67;99098.19;649022;221;23894;-73
2021/05/10 00:16:08;;;;;;;7.77;3.10;;;;;;;18.22;77.86;99091.61;639906;221;23848;-72
2021/05/10 00:18:36;;;;;;;5.07;3.33;;;;;;;18.20;77.96;99075.23;643636;221;23832;-73
2021/05/10 00:21:04;;;;;;;5.40;4.00;;;;;;;18.12;80.13;99066.83;647135;220;24929;-73
2021/05/10 00:23:32;;;;;;;3.80;3.50;;;;;;;17.98;80.55;99055.67;638501;224;24830;-72
2021/05/10 00:26:00;;;;;;;6.13;4.00;;;;;;;17.51;83.27;99065.38;645116;220;27016;-72
2021/05/10 00:28:27;;;;;;;5.57;3.60;;;;;;;17.45;85.62;99058.38;641300;221;24013;-73
2021/05/10 00:30:55;;;;;;;5.15;3.77;;;;;;;18.14;82.18;99040.58;637469;221;32801;-73
2021/05/10 00:33:23;;;;;;;4.57;3.63;;;;;;;17.71;83.93;99039.41;648788;221;22999;-73
2021/05/10 00:35:51;;;;;;;3.97;3.53;;;;;;;17.42;85.58;99049.59;648944;221;23846;-73
2021/05/10 00:38:19;;;;;;;4.63;4.13;;;;;;;17.42;85.50;99047.48;643855;221;30280;-72
2021/05/10 00:40:47;;;;;;;6.43;4.40;;;;;;;17.25;85.64;99041.19;632586;225;24857;-73
2021/05/10 00:43:15;;;;;;;4.23;3.83;;;;;;;17.18;86.74;99035.50;628755;225;24951;-73
2021/05/10 00:45:43;;;;;;;4.30;3.90;;;;;;;16.94;87.58;99023.69;627795;225;28131;-75
2021/05/10 00:48:11;;;;;;;6.03;3.80;;;;;;;16.98;86.73;99006.47;643401;220;23835;-72
2021/05/10 00:50:39;;;;;;;4.43;3.80;;;;;;;17.01;87.35;98997.64;633670;225;23868;-72
2021/05/10 00:53:06;;;;;;;5.80;4.33;;;;;;;16.90;86.87;98986.55;642587;220;23906;-73
2021/05/10 00:55:36;;;;;;;4.72;3.95;;;;;;;17.34;84.69;98976.30;634509;221;32852;-73
2021/05/10 00:58:02;;;;;;;5.57;4.57;;;;;;;16.83;87.97;98981.86;643691;219;23751;-74
2021/05/10 01:00:31;;;;;;;4.93;4.43;;;;;;;16.82;88.02;98980.25;645828;221;23856;-73
2021/05/10 01:05:37;;;;;;;5.60;4.57;;;;;;;17.03;87.05;98963.27;650809;217;29853;-72
2021/05/10 01:08:05;;;;;;;4.63;4.10;;;;;;;16.82;88.04;98965.81;643407;221;23812;-72
2021/05/10 01:10:33;;;;;;;5.80;3.70;;;;;;;16.75;86.78;98963.73;625603;229;24888;-72
2021/05/10 01:13:01;;;;;;;4.33;3.93;;;;;;;16.89;86.76;98958.66;625123;228;28039;-72
2021/05/10 01:15:30;;;;;;;4.83;4.00;;;;;;;17.19;85.70;98970.61;638893;224;23854;-72
2021/05/10 01:17:57;;;;;;;6.33;4.67;;;;;;;17.45;84.23;98976.05;638184;224;24805;-72
2021/05/10 01:20:25;;;;;;;5.43;4.87;;;;;;;17.49;83.76;98973.30;629023;228;23880;-71
2021/05/10 01:22:53;;;;;;;4.77;4.10;;;;;;;17.58;84.10;98978.53;627259;228;23901;-72
2021/05/10 01:25:21;;;;;;;7.08;4.35;;;;;;;17.89;82.12;98986.79;633928;222;32731;-73
2021/05/10 01:27:49;;;;;;;6.85;4.20;;;;;;;18.03;80.37;98991.36;620668;229;32864;-71
2021/05/10 01:30:18;;;;;;;4.57;4.17;;;;;;;17.61;82.36;98995.72;626513;229;22777;-72
2021/05/10 01:32:46;;;;;;;4.10;3.70;;;;;;;18.22;79.53;98985.52;619096;229;32758;-71
2021/05/10 01:35:14;;;;;;;4.00;3.60;;;;;;;17.87;80.40;98985.38;623558;229;24936;-72
2021/05/10 01:37:42;;;;;;;4.27;3.37;;;;;;;17.68;80.69;98996.42;624554;229;23856;-71
2021/05/10 01:40:11;;;;;;;4.50;3.37;;;;;;;17.79;81.01;99005.72;620092;229;23849;-71
2021/05/10 01:42:39;;;;;;;6.17;3.17;;;;;;;17.75;80.76;99001.14;633617;225;23894;-71
2021/05/10 01:45:07;;;;;;;5.57;3.90;;;;;;;17.79;81.21;98995.20;638745;225;24867;-71
2021/05/10 01:47:35;;;;;;;4.40;3.00;;;;;;;17.62;81.21;98998.63;638916;225;24854;-71
2021/05/10 01:50:10;;;;;;;4.67;3.50;;;;;;;17.51;81.16;98980.45;638800;225;27053;-71
2021/05/10 01:52:38;;;;;;;5.43;3.70;;;;;;;17.35;81.57;98981.05;638022;225;26055;-74
2021/05/10 01:55:06;;;;;;;4.28;3.60;;;;;;;18.06;78.66;98978.55;632407;225;32604;-75
2021/05/10 01:57:34;;;;;;;3.60;3.30;;;;;;;17.26;81.91;98981.03;624366;230;23728;-72
2021/05/10 02:00:02;;;;;;;5.90;3.50;;;;;;;17.04;83.00;98980.66;637411;225;23883;-72
2021/05/10 02:02:30;;;;;;;3.57;3.23;;;;;;;16.97;84.23;98974.66;638743;224;30265;-71
2021/05/10 02:05:05;;;;;;;6.90;3.37;;;;;;;16.90;83.84;98977.36;625339;229;23900;-72
2021/05/10 02:07:34;;;;;;;5.33;2.83;;;;;;;17.68;80.20;98959.13;635146;223;32666;-71
2021/05/10 02:10:02;;;;;;;2.70;2.50;;;;;;;17.29;81.06;98969.56;639234;224;22719;-72
2021/05/10 02:12:30;;;;;;;4.57;2.93;;;;;;;17.27;80.94;98970.81;637936;224;24830;-71
2021/05/10 02:14:57;;;;;;;3.37;2.70;;;;;;;17.20;80.58;98965.13;638911;223;24906;-71
2021/05/10 02:17:25;;;;;;;3.20;2.90;;;;;;;17.56;79.38;98951.66;620948;228;32794;-72
2021/05/10 02:19:54;;;;;;;4.87;3.17;;;;;;;16.79;83.20;98958.38;625726;229;23010;-71
2021/05/10 02:22:23;;;;;;;3.80;3.00;;;;;;;17.30;80.71;98958.03;636276;223;32706;-72
2021/05/10 02:24:51;;;;;;;3.23;2.90;;;;;;;16.79;83.27;98958.38;638871;224;22734;-71
2021/05/10 02:27:19;;;;;;;6.93;3.23;;;;;;;16.77;82.62;98955.16;641018;224;24845;-72
2021/05/10 02:29:47;;;;;;;8.50;2.97;;;;;;;16.89;82.45;98949.46;639758;223;23834;-72
2021/05/10 02:32:14;;;;;;;4.73;3.30;;;;;;;16.58;83.71;98968.70;641104;224;23817;-73
2021/05/10 02:34:42;;;;;;;3.90;3.37;;;;;;;16.34;85.11;98971.63;639200;224;23860;-71
2021/05/10 02:37:12;;;;;;;4.60;2.80;;;;;;;16.36;84.69;98960.41;641335;223;23852;-71
2021/05/10 02:39:39;;;;;;;7.10;3.53;;;;;;;16.03;85.97;98962.73;638856;224;23847;-73
2021/05/10 02:42:07;;;;;;;4.07;3.40;;;;;;;15.85;88.73;98972.33;639249;224;23841;-71
2021/05/10 02:44:35;;;;;;;8.13;3.80;;;;;;;15.88;88.99;98953.03;638353;224;24940;-72
2021/05/10 02:47:03;;;;;;;5.70;3.90;;;;;;;16.31;86.52;98960.23;633712;224;32631;-71
2021/05/10 02:49:31;;;;;;;6.20;4.00;;;;;;;16.12;87.68;98975.09;626782;229;22744;-72
2021/05/10 02:51:59;;;;;;;5.27;4.10;;;;;;;15.80;88.35;98986.07;641021;223;23829;-71
2021/05/10 02:54:27;;;;;;;4.43;3.80;;;;;;;15.85;88.36;98961.33;638957;224;23858;-71
2021/05/10 02:56:54;;;;;;;4.43;4.00;;;;;;;15.65;89.81;98960.63;641265;224;24150;-72
2021/05/10 02:59:22;;;;;;;5.15;4.00;;;;;;;16.17;86.96;98966.07;633801;223;32711;-73
2021/05/10 03:01:50;;;;;;;3.90;3.60;;;;;;;15.80;88.36;98962.98;638099;224;22790;-71
2021/05/10 03:04:18;;;;;;;4.70;4.27;;;;;;;15.59;88.99;98995.02;639504;224;24883;-71
2021/05/10 03:06:46;;;;;;;5.47;4.83;;;;;;;16.37;86.58;98955.45;633078;224;32698;-71
2021/05/10 03:09:14;;;;;;;5.30;4.80;;;;;;;15.79;88.69;98922.05;639732;224;22710;-72
2021/05/10 03:11:42;;;;;;;4.70;4.07;;;;;;;15.41;90.86;99005.34;626000;229;23898;-71
2021/05/10 03:14:10;;;;;;;7.23;4.67;;;;;;;15.30;91.18;98972.70;626202;228;24836;-73
2021/05/10 03:16:38;;;;;;;6.27;4.77;;;;;;;15.05;92.95;98978.30;639568;224;23836;-71
2021/05/10 03:19:09;;;;;;;5.57;4.80;;;;;;;15.25;92.86;98972.53;625403;229;24850;-72
2021/05/10 03:21:36;;;;;;;5.20;4.70;;;;;;;15.43;92.49;98979.73;640908;223;23824;-72
2021/05/10 03:24:05;;;;;;;7.20;5.00;;;;;;;15.56;90.69;98995.91;637898;222;23864;-72
2021/05/10 03:26:33;;;;;;;6.50;4.67;;;;;;;15.70;90.71;99018.47;641048;223;23844;-71
2021/05/10 03:29:01;;;;;;;6.00;4.30;;;;;;;16.34;87.36;99020.18;620165;229;32724;-71
2021/05/10 03:31:29;;;;;;;7.47;4.40;;;;;;;15.61;90.62;99041.98;638682;223;22715;-71
2021/05/10 03:33:57;;;;;;;9.03;5.00;;;;;;;15.44;91.78;99102.67;638363;224;23808;-71
2021/05/10 03:36:25;;;;;;;6.37;4.43;;;;;;;15.18;94.84;99151.16;638839;224;25050;-71
2021/05/10 03:38:53;;;;;;;4.60;4.20;;;;;;;15.48;93.56;99169.09;636207;224;32608;-71
2021/05/10 03:41:22;;;;;;;6.13;3.93;;;;;;;15.57;93.93;99148.22;640536;224;23912;-71
2021/05/10 03:43:48;;;;;;;4.80;4.10;;;;;;;15.86;91.85;99131.26;641130;224;30167;-71
2021/05/10 03:46:16;;;;;;;8.70;3.50;;;;;;;16.08;88.69;99129.19;640551;224;23839;-71
2021/05/10 03:48:44;;;;;;;4.83;3.80;;;;;;;16.08;88.82;99140.98;640313;224;23836;-71
2021/05/10 03:51:12;;;;;;;3.43;3.13;;;;;;;15.95;89.89;99151.81;639295;224;23879;-71
2021/05/10 03:53:40;;;;;;;5.08;3.90;;;;;;;16.14;89.44;99146.70;615196;229;33006;-71
2021/05/10 03:56:08;;;;;;;5.90;3.77;;;;;;;15.97;89.25;99126.19;640364;223;22721;-71
2021/05/10 03:58:36;;;;;;;4.33;3.77;;;;;;;16.35;89.57;99132.00;639551;223;23825;-71
2021/05/10 04:01:04;;;;;;;4.70;3.80;;;;;;;16.47;89.17;99117.69;625399;229;24881;-71
2021/05/10 04:03:36;;;;;;;6.17;3.90;;;;;;;16.97;86.62;99127.81;619077;224;32718;-71
2021/05/10 04:06:15;;;;;;;4.37;3.77;;;;;;;16.62;87.47;99130.86;624420;228;23748;-71
2021/05/10 04:08:50;;;;;;;8.03;4.20;;;;;;;16.59;86.56;99133.88;625751;225;24833;-71
2021/05/10 04:11:23;;;;;;;5.20;4.10;;;;;;;16.48;87.01;99137.19;635704;225;23802;-71
2021/05/10 04:13:44;;;;;;;3.83;3.43;;;;;;;16.68;87.17;99140.23;635510;225;23823;-72
2021/05/10 04:16:09;;;;;;;4.13;3.73;;;;;;;16.88;86.64;99129.08;618816;230;24945;-72
2021/05/10 04:18:38;;;;;;;6.60;4.50;;;;;;;17.37;85.24;99115.68;621890;229;32730;-71
2021/05/10 04:21:06;;;;;;;4.50;3.80;;;;;;;16.85;87.07;99116.38;625957;229;23290;-72
2021/05/10 04:23:34;;;;;;;6.37;3.90;;;;;;;16.70;88.10;99117.19;626702;228;23878;-72
2021/05/10 04:26:02;;;;;;;8.07;4.20;;;;;;;16.49;89.60;99109.13;639980;223;26136;-72
2021/05/10 04:28:30;;;;;;;5.03;4.00;;;;;;;16.26;91.28;99111.74;639724;224;23854;-72
2021/05/10 04:30:57;;;;;;;4.77;4.20;;;;;;;16.16;91.23;99118.45;638467;224;23850;-71
2021/05/10 04:33:27;;;;;;;4.50;3.90;;;;;;;16.14;91.30;99111.30;639795;224;24841;-72
2021/05/10 04:35:55;;;;;;;4.67;4.17;;;;;;;16.34;91.38;99118.59;628930;223;23866;-71
2021/05/10 04:38:23;;;;;;;3.87;3.60;;;;;;;16.41;90.53;99127.22;625842;227;23844;-71
2021/05/10 04:40:50;;;;;;;4.62;4.12;;;;;;;17.21;86.98;99132.29;620303;229;33503;-72
2021/05/10 04:43:18;;;;;;;4.23;3.83;;;;;;;16.40;91.27;99167.60;637799;224;23710;-72
2021/05/10 04:45:46;;;;;;;5.40;4.30;;;;;;;16.48;90.48;99194.94;637033;224;25366;-71
2021/05/10 04:48:14;;;;;;;5.00;3.90;;;;;;;16.18;91.48;99208.23;623823;229;24911;-71
2021/05/10 04:50:42;;;;;;;5.30;4.13;;;;;;;16.30;91.50;99212.64;624797;230;24102;-71
2021/05/10 04:53:11;;;;;;;5.87;4.73;;;;;;;16.34;91.91;99220.93;619075;229;24911;-73
2021/05/10 04:55:39;;;;;;;10.00;4.27;;;;;;;16.25;91.14;99222.16;639107;224;24061;-72
2021/05/10 04:58:07;;;;;;;4.73;4.27;;;;;;;16.22;90.67;99215.52;637976;221;23797;-73
2021/05/10 05:00:35;;;;;;;5.00;4.20;;;;;;;16.35;91.70;99227.79;624598;229;24941;-73
2021/05/10 05:03:03;;;;;;;11.43;4.37;;;;;;;16.41;91.48;99239.27;625543;229;23896;-73
2021/05/10 05:05:31;;;;;;;10.90;4.70;;;;;;;16.38;93.04;99235.24;627097;228;23837;-72
2021/05/10 05:07:59;;;;;;;8.63;4.00;;;;;;;16.49;90.94;99228.05;625488;228;23849;-71
2021/05/10 05:10:26;;;;;;;6.70;3.70;;;;;;;16.78;86.12;99220.69;640816;223;24808;-71
2021/05/10 05:12:54;;;;;;;4.70;3.40;;;;;;;16.90;85.44;99221.13;639503;224;24840;-71
2021/05/10 05:15:22;;;;;;;3.97;3.00;;;;;;;17.10;83.32;99211.80;624874;229;23842;-71
2021/05/10 05:17:50;;;;;;;2.80;2.37;;;;;;;17.38;81.63;99208.78;621850;229;23916;-71
2021/05/10 05:20:18;;;;;;;3.53;2.50;;;;;;;17.62;79.74;99222.95;635857;225;24817;-72
2021/05/10 05:22:46;;;;;;;4.00;2.70;;;;;;;17.78;80.60;99242.16;624330;229;24858;-71
2021/05/10 05:25:14;;;;;;;7.60;2.63;;;;;;;18.01;81.14;99223.63;639568;223;23845;-71
2021/05/10 05:27:42;;;;;;;3.07;2.43;;;;;;;18.00;80.84;99202.28;640416;223;23823;-70
2021/05/10 05:30:12;;;;;;;3.00;2.43;;;;;;;18.12;79.88;99208.44;638230;224;27078;-71
2021/05/10 05:32:39;;;;;;;5.13;3.03;;;;;;;18.25;78.02;99206.98;623621;230;23894;-71
2021/05/10 05:35:08;;;;;;;6.00;2.60;;;;;;;18.57;76.90;99205.48;622802;228;33365;-71
2021/05/10 05:37:36;;;;;;;3.00;2.00;;;;;;;18.32;76.68;99216.13;638349;225;22702;-72
2021/05/10 05:40:05;;;;;;;6.93;2.00;;;;;;;18.45;74.18;99214.67;639476;223;23883;-72
2021/05/10 05:42:33;;;;;;;1.70;1.60;;;;;;;18.57;74.40;99211.55;639047;224;23917;-71
2021/05/10 05:45:02;;;;;;;2.03;1.80;;;;;;;18.56;74.41;99213.90;638512;224;23862;-71
2021/05/10 05:47:29;;;;;;;3.20;2.30;;;;;;;18.70;74.34;99211.94;640559;224;23843;-71
2021/05/10 05:49:56;;;;;;;2.53;1.90;;;;;;;18.82;72.55;99218.58;639796;223;24861;-71
2021/05/10 05:52:24;;;;;;;3.53;2.13;;;;;;;18.91;72.69;99232.55;626913;228;23905;-72
2021/05/10 05:54:52;;;;;;;2.97;1.83;;;;;;;18.98;72.31;99229.29;624876;229;23876;-71
2021/05/10 05:57:20;;;;;;;5.80;2.40;;;;;;;19.15;71.80;99236.59;641411;222;23850;-71
2021/05/10 05:59:48;;;;;;;3.60;1.90;;;;;;;19.34;72.72;99249.18;640087;224;23881;-71
2021/05/10 06:02:16;;;;;;;6.33;2.03;;;;;;;19.55;71.64;99249.47;639056;224;23834;-71
2021/05/10 06:04:43;;;;;;;2.77;2.30;;;;;;;19.61;72.69;99254.89;640400;224;26009;-74
2021/05/10 06:07:11;;;;;;;3.47;2.40;;;;;;;20.00;72.56;99258.70;634894;224;33155;-71
2021/05/10 06:09:39;;;;;;;3.83;1.90;;;;;;;19.73;74.09;99266.27;640456;224;22735;-71
2021/05/10 06:12:08;;;;;;;2.80;2.20;;;;;;;19.69;73.38;99273.00;639822;224;26998;-71
2021/05/10 06:14:35;;;;;;;4.10;2.23;;;;;;;19.66;74.24;99279.55;639790;224;23911;-71
2021/05/10 06:17:03;;;;;;;3.27;2.10;;;;;;;19.37;74.81;99286.45;638955;224;30958;-71
2021/05/10 06:19:32;;;;;;;2.30;2.03;;;;;;;19.32;75.48;99299.52;623636;228;30304;-71
2021/05/10 06:22:00;;;;;;;1.83;1.73;;;;;;;19.38;75.36;99295.97;625083;229;23855;-71
2021/05/10 06:24:28;;;;;;;3.20;1.93;;;;;;;19.63;75.67;99310.86;639442;223;23830;-72
2021/05/10 06:26:56;;;;;;;8.30;2.40;;;;;;;19.56;76.06;99313.09;639859;224;23850;-72
2021/05/10 06:29:24;;;;;;;3.75;2.30;;;;;;;20.02;74.00;99312.08;633321;224;43371;-72
2021/05/10 06:31:52;;;;;;;2.77;2.57;;;;;;;19.68;75.82;99313.09;638813;223;22721;-71
2021/05/10 06:34:20;;;;;;;14.73;4.40;;;;;;;20.09;74.46;99314.87;633543;224;32706;-72
2021/05/10 06:36:47;;;;;;;21.10;5.53;;;;;;;19.84;75.72;99321.67;624684;229;22780;-71
2021/05/10 06:39:15;;;;;;;31.95;8.48;;;;;;;20.17;75.50;99321.66;634594;224;32766;-71
2021/05/10 06:41:43;;;;;;;10.90;4.50;;;;;;;19.74;76.95;99333.84;638316;225;23189;-72
2021/05/10 06:44:11;;;;;;;6.10;3.20;;;;;;;19.54;77.24;99339.36;632656;225;26944;-71
2021/05/10 06:46:39;;;;;;;4.30;3.00;;;;;;;19.44;78.45;99350.98;638967;223;23841;-71
2021/05/10 06:49:07;;;;;;;4.63;2.90;;;;;;;19.67;78.16;99351.59;639538;224;24129;-71
2021/05/10 06:51:35;;;;;;;4.87;2.95;;;;;;;20.11;75.80;99343.17;634480;224;32737;-71
2021/05/10 06:54:03;;;;;;;3.63;3.30;;;;;;;19.89;77.30;99363.76;639657;224;24944;-72
2021/05/10 06:56:31;;;;;;;6.85;2.90;;;;;;;20.53;75.31;99357.61;633880;224;43730;-71
2021/05/10 06:58:59;;;;;;;5.50;2.83;;;;;;;20.17;75.46;99374.47;637914;222;26859;-71
2021/05/10 07:01:27;;;;;;;8.40;2.87;;;;;;;20.42;74.90;99367.17;625061;228;23872;-71
2021/05/10 07:03:55;;;;;;;4.73;3.00;;;;;;;20.60;73.50;99376.81;642378;223;24916;-71
2021/05/10 07:06:23;;;;;;;8.50;3.10;;;;;;;21.07;72.29;99367.47;636128;223;32660;-71
2021/05/10 07:08:51;;;;;;;5.70;2.60;;;;;;;20.89;72.95;99394.88;640788;223;24112;-73
2021/05/10 07:11:19;;;;;;;4.20;2.50;;;;;;;20.12;74.54;99412.11;620158;229;32680;-74
2021/05/10 07:13:47;;;;;;;5.73;3.03;;;;;;;19.76;75.69;99416.22;626527;229;22801;-74
2021/05/10 07:16:14;;;;;;;3.70;2.27;;;;;;;19.74;76.16;99418.28;638615;224;23868;-72
2021/05/10 07:18:42;;;;;;;4.03;2.27;;;;;;;19.86;75.50;99419.93;626922;226;24177;-73
2021/05/10 07:21:10;;;;;;;4.73;2.40;;;;;;;19.84;73.76;99418.52;634067;225;23901;-73
2021/05/10 07:23:38;;;;;;;7.50;2.93;;;;;;;19.96;74.18;99421.20;642149;223;23913;-73
2021/05/10 07:26:07;;;;;;;2.77;2.10;;;;;;;20.17;72.85;99406.16;624814;229;27002;-73
2021/05/10 07:28:35;;;;;;;3.30;1.23;;;;;;;20.23;69.94;99391.23;626693;228;28122;-73
2021/05/10 07:31:03;;;;;;;3.70;1.70;;;;;;;20.34;70.54;99392.56;624724;229;24925;-73
2021/05/10 07:33:30;;;;;;;1.97;1.17;;;;;;;20.32;67.88;99396.47;637728;225;23851;-73
2021/05/10 07:35:58;;;;;;;2.50;1.30;;;;;;;20.60;66.89;99400.59;638152;224;24859;-73
2021/05/10 07:38:26;;;;;;;3.43;1.13;;;;;;;20.45;66.32;99395.77;625284;226;23896;-73
2021/05/10 07:40:54;;;;;;;3.60;1.23;;;;;;;20.35;64.65;99398.14;620577;229;32687;-73
2021/05/10 07:43:22;;;;;;;2.10;1.10;;;;;;;20.18;65.66;99399.05;626179;228;23855;-73
2021/05/10 07:45:50;;;;;;;1.67;0.97;;;;;;;20.05;65.04;99404.02;639562;224;23844;-73
2021/05/10 07:48:18;;;;;;;1.20;0.93;;;;;;;19.99;64.73;99395.69;624221;229;24884;-74
2021/05/10 07:50:47;;;;;;;3.33;1.00;;;;;;;19.98;65.60;99401.97;621669;228;43406;-74
2021/05/10 07:53:15;;;;;;;4.50;1.00;;;;;;;20.02;65.48;99407.11;640524;223;25869;-73
2021/05/10 07:55:43;;;;;;;6.40;1.30;;;;;;;19.97;66.66;99410.92;639038;224;24917;-73
2021/05/10 07:58:10;;;;;;;3.07;1.00;;;;;;;19.87;66.52;99418.09;637315;224;24897;-73
2021/05/10 08:00:41;;;;;;;1.20;1.00;;;;;;;19.97;67.01;99419.65;632597;224;32728;-73
2021/05/10 08:03:07;;;;;;;2.50;1.30;;;;;;;19.85;68.05;99419.64;626987;227;23727;-73
2021/05/10 08:05:35;;;;;;;2.93;1.20;;;;;;;19.85;67.71;99425.44;637482;225;23847;-73
2021/05/10 08:08:03;;;;;;;3.07;1.27;;;;;;;19.60;67.61;99428.20;625083;229;24944;-73
2021/05/10 08:10:31;;;;;;;2.20;1.10;;;;;;;19.43;68.90;99426.67;625412;228;23863;-73
2021/05/10 08:12:59;;;;;;;5.03;1.10;;;;;;;19.54;69.42;99428.56;625642;227;23882;-73
2021/05/10 08:15:27;;;;;;;2.22;1.10;;;;;;;19.38;68.23;99412.52;636916;223;32674;-73
2021/05/10 08:17:55;;;;;;;3.17;1.37;;;;;;;19.44;68.61;99413.77;641363;223;22727;-74
2021/05/10 08:20:23;;;;;;;3.70;1.40;;;;;;;19.55;68.11;99409.06;624904;229;23882;-74
2021/05/10 08:22:51;;;;;;;3.90;1.20;;;;;;;20.03;66.81;99409.52;626783;229;24851;-74
2021/05/10 08:25:20;;;;;;;2.20;1.10;;;;;;;20.10;66.99;99416.01;626010;228;27021;-75
2021/05/10 08:27:49;;;;;;;3.13;0.90;;;;;;;19.82;66.53;99413.98;639500;224;23878;-73
2021/05/10 08:30:17;;;;;;;3.17;0.87;;;;;;;19.64;67.05;99432.00;636870;224;23790;-73
2021/05/10 08:32:45;;;;;;;1.50;0.90;;;;;;;19.80;67.13;99456.44;621534;226;43522;-74
2021/05/10 08:35:14;;;;;;;5.27;1.00;;;;;;;19.56;67.60;99451.59;625655;229;22731;-73
2021/05/10 08:37:42;;;;;;;1.27;0.90;;;;;;;19.49;66.81;99450.02;623258;228;23922;-73
2021/05/10 08:40:10;;;;;;;0.93;0.83;;;;;;;19.48;67.30;99448.41;626342;228;23875;-74
2021/05/10 08:42:38;;;;;;;2.27;1.10;;;;;;;19.29;68.17;99455.55;639557;223;23829;-73
2021/05/10 08:45:07;;;;;;;3.63;1.23;;;;;;;19.20;69.05;99462.13;639100;224;24870;-74
2021/05/10 08:47:37;;;;;;;1.60;0.80;;;;;;;19.06;68.02;99461.46;638203;224;23893;-74
2021/05/10 08:50:04;;;;;;;3.37;0.80;;;;;;;19.24;68.55;99471.20;639143;224;23823;-73
2021/05/10 08:52:31;;;;;;;1.83;1.40;;;;;;;19.05;69.07;99488.84;639189;224;24973;-74
2021/05/10 08:54:59;;;;;;;0.80;0.80;;;;;;;19.03;69.42;99487.45;626964;229;23858;-74
2021/05/10 08:57:27;;;;;;;3.25;1.20;;;;;;;19.38;68.96;99488.48;622910;227;32789;-74
2021/05/10 08:59:55;;;;;;;1.67;0.90;;;;;;;19.20;68.17;99484.53;640402;224;22722;-73
2021/05/10 09:02:30;;;;;;;2.40;1.10;;;;;;;19.01;69.46;99488.19;626112;229;23840;-73
2021/05/10 09:05:10;;;;;;;0.80;0.80;;;;;;;18.85;69.37;99518.00;627321;228;23893;-73
2021/05/10 09:07:37;;;;;;;1.00;0.93;;;;;;;18.91;69.01;99519.79;640679;224;24965;-73
2021/05/10 09:10:06;;;;;;;1.65;0.80;;;;;;;19.02;69.17;99520.92;620953;228;33267;-73
2021/05/10 09:12:42;;;;;;;3.93;0.77;;;;;;;18.86;68.82;99526.71;622045;229;26934;-74
2021/05/10 09:15:17;;;;;;;3.07;0.80;;;;;;;18.74;69.02;99526.63;621988;227;23909;-74
2021/05/10 09:17:47;;;;;;;1.13;0.60;;;;;;;18.87;69.22;99525.20;637419;224;24854;-74
2021/05/10 09:20:16;;;;;;;0.87;0.60;;;;;;;18.72;68.83;99532.62;637389;225;23808;-71
2021/05/10 09:22:48;;;;;;;1.10;0.80;;;;;;;18.92;69.35;99536.41;625262;229;23816;-73
2021/05/10 09:25:16;;;;;;;1.60;0.60;;;;;;;19.03;68.82;99538.34;628808;227;24869;-73
2021/05/10 09:27:44;;;;;;;8.43;0.80;;;;;;;19.28;69.55;99529.05;625853;228;24844;-75
2021/05/10 09:30:16;;;;;;;0.80;0.60;;;;;;;19.18;66.96;99517.72;638794;224;23824;-73
2021/05/10 09:32:48;;;;;;;1.47;0.60;;;;;;;19.61;66.71;99530.06;640374;224;23886;-74
2021/05/10 09:35:18;;;;;;;1.23;0.60;;;;;;;19.26;67.14;99533.23;640260;224;23827;-73
2021/05/10 09:37:52;;;;;;;0.70;0.70;;;;;;;19.30;67.20;99533.63;624729;229;23848;-73
2021/05/10 09:40:20;;;;;;;1.03;0.60;;;;;;;19.30;66.42;99529.67;625277;227;23895;-71
2021/05/10 09:42:49;;;;;;;0.93;0.60;;;;;;;19.35;66.50;99512.66;637613;223;24891;-73
2021/05/10 09:45:29;;;;;;;13.13;0.80;;;;;;;19.09;67.29;99523.48;641141;223;23814;-72
2021/05/10 09:48:05;;;;;;;3.73;0.60;;;;;;;19.52;67.77;99521.59;624466;229;23872;-74
2021/05/10 09:50:34;;;;;;;2.10;0.70;;;;;;;19.49;66.56;99527.84;626282;229;23841;-73
2021/05/10 09:53:02;;;;;;;1.40;0.80;;;;;;;19.01;67.16;99529.05;626531;229;23838;-73
2021/05/10 09:55:42;;;;;;;1.53;0.60;;;;;;;19.03;67.49;99540.98;626014;227;28040;-71
2021/05/10 09:58:08;;;;;;;0.60;0.60;;;;;;;19.27;66.98;99534.84;639160;224;23867;-71
2021/05/10 10:00:36;;;;;;;0.78;0.62;;;;;;;19.24;66.86;99538.44;618337;230;32788;-71
2021/05/10 10:03:05;;;;;;;0.97;0.60;;;;;;;19.44;66.63;99541.69;639115;225;25888;-72
2021/05/10 10:05:31;;;;;;;0.80;0.60;;;;;;;19.68;67.70;99553.72;637395;225;23835;-72
2021/05/10 10:07:59;;;;;;;1.50;0.50;;;;;;;19.61;66.54;99559.61;637963;224;23861;-72
2021/05/10 10:10:27;;;;;;;0.60;0.60;;;;;;;19.39;65.85;99554.71;639096;224;24276;-71
2021/05/10 10:12:55;;;;;;;0.60;0.60;;;;;;;19.45;66.35;99563.09;625753;229;23831;-71
2021/05/10 10:15:23;;;;;;;0.80;0.60;;;;;;;19.32;66.37;99579.04;624596;228;23822;-71
2021/05/10 10:17:51;;;;;;;1.80;0.53;;;;;;;19.39;66.16;99571.85;626008;229;23814;-72
2021/05/10 10:20:20;;;;;;;1.73;0.60;;;;;;;19.69;65.54;99581.72;628123;228;23872;-71
2021/05/10 10:22:47;;;;;;;0.80;0.57;;;;;;;19.58;66.26;99570.09;625532;229;23833;-71
2021/05/10 10:25:15;;;;;;;1.70;0.60;;;;;;;19.52;65.30;99556.41;635829;225;24043;-72
2021/05/10 10:27:43;;;;;;;1.40;0.60;;;;;;;19.34;66.52;99559.84;627324;225;32840;-71
2021/05/10 10:30:12;;;;;;;0.90;0.80;;;;;;;18.97;66.80;99557.64;635144;224;23729;-71
2021/05/10 10:32:40;;;;;;;1.50;0.60;;;;;;;19.09;66.93;99547.20;619773;228;33067;-71
2021/05/10 10:35:08;;;;;;;1.17;0.67;;;;;;;19.33;66.74;99541.61;622014;229;23988;-71
2021/05/10 10:37:36;;;;;;;0.77;0.70;;;;;;;19.35;67.22;99552.73;630436;226;24143;-72
2021/05/10 10:40:05;;;;;;;2.87;0.70;;;;;;;19.45;66.19;99550.41;642294;223;23846;-71
2021/05/10 10:42:34;;;;;;;1.83;0.80;;;;;;;19.64;66.22;99553.36;636968;224;23841;-71
2021/05/10 10:45:01;;;;;;;2.00;0.70;;;;;;;19.46;66.74;99557.30;625374;229;23872;-73
2021/05/10 10:47:42;;;;;;;1.00;0.70;;;;;;;19.76;66.71;99556.08;633686;222;32489;-74
2021/05/10 10:50:05;;;;;;;0.80;0.60;;;;;;;19.77;66.61;99565.60;637077;224;23824;-73
2021/05/10 10:52:33;;;;;;;0.60;0.60;;;;;;;19.48;67.48;99574.52;626991;227;23829;-71
2021/05/10 10:55:14;;;;;;;0.50;0.50;;;;;;;19.65;66.90;99586.64;624464;229;23888;-73
2021/05/10 10:57:42;;;;;;;1.13;0.70;;;;;;;19.94;65.78;99603.56;626157;229;24029;-72
2021/05/10 11:00:13;;;;;;;0.60;0.60;;;;;;;19.92;65.14;99601.66;636850;224;28042;-71
2021/05/10 11:02:41;;;;;;;1.27;0.60;;;;;;;19.67;67.21;99608.33;624181;229;24847;-72
2021/05/10 11:05:10;;;;;;;1.13;0.60;;;;;;;19.72;67.94;99620.37;626780;228;23878;-73
2021/05/10 11:07:47;;;;;;;1.23;0.70;;;;;;;19.76;66.48;99618.09;640667;223;23884;-71
2021/05/10 11:10:34;;;;;;;0.90;0.70;;;;;;;19.47;68.24;99612.47;638848;224;23835;-71
2021/05/10 11:13:02;;;;;;;1.53;0.63;;;;;;;19.29;67.70;99611.13;627549;229;23821;-71
2021/05/10 11:15:42;;;;;;;0.90;0.60;;;;;;;19.56;67.86;99620.92;640696;223;23873;-72
2021/05/10 11:18:08;;;;;;;0.60;0.60;;;;;;;19.43;68.57;99626.31;639684;224;23826;-71
2021/05/10 11:20:38;;;;;;;0.70;0.60;;;;;;;19.26;68.43;99632.63;639204;224;23814;-71
2021/05/10 11:23:17;;;;;;;1.00;0.57;;;;;;;19.84;67.83;99630.47;638533;224;24795;-71
2021/05/10 11:25:45;;;;;;;2.70;0.80;;;;;;;19.86;67.08;99641.64;636088;224;32641;-72
2021/05/10 11:28:37;;;;;;;1.07;0.73;;;;;;;19.31;68.30;99648.63;639750;224;22718;-71
2021/05/10 11:31:05;;;;;;;0.60;0.57;;;;;;;19.86;67.29;99652.20;638096;224;24858;-71
2021/05/10 11:34:02;;;;;;;0.83;0.67;;;;;;;19.79;66.71;99653.28;624293;229;23911;-71
2021/05/10 11:36:30;;;;;;;1.12;0.70;;;;;;;19.07;69.17;99665.23;620493;228;32884;-72
2021/05/10 11:38:58;;;;;;;3.73;0.60;;;;;;;18.94;69.50;99670.09;628311;228;22750;-71
2021/05/10 11:41:28;;;;;;;0.90;0.60;;;;;;;19.08;68.05;99674.77;632727;225;32651;-71
2021/05/10 11:43:58;;;;;;;0.60;0.60;;;;;;;18.92;67.97;99676.08;631453;225;22755;-71